Nashville, Tennessee
Traffic Map
Current Weather Conditions
Nashville, Tennessee
Few Clouds
Few Clouds
21°
Feels Like: 21°
Wind Chill: 21° Ceiling: Unl
Heat Index: 21° Visibility: 10mi
Dew Point: 10° Wind: 12mph
Humidity: 51% Direction: 40° (NE)
Pressure: 30.21in Gusts: 17mph
Raw Report DataKBNA 221553Z 04010G15KT 10SM FEW040 21/10 A3021 RMK AO2 SLP225 T02060100
Traffic Incident Summary
Active as of:
Severity:
Category:
InformationThere was an issue retrieving the traffic information for this location. Please try a different location or try again shortly.
Advertisements
Track Severe Weather on mobile